createdAt,value
2022-12-20T00:00:30.755Z,17.04
2022-12-20T00:01:02.178Z,17.04
2022-12-20T00:01:33.634Z,17.04
2022-12-20T00:02:05.164Z,17.02
2022-12-20T00:02:36.768Z,17.02
2022-12-20T00:03:08.370Z,17.03
2022-12-20T00:03:39.952Z,17.03
2022-12-20T00:04:11.389Z,17.02
2022-12-20T00:04:42.785Z,17.00
2022-12-20T00:05:14.202Z,17.01
2022-12-20T00:05:45.617Z,17.01
2022-12-20T00:06:17.037Z,17.01
2022-12-20T00:06:48.438Z,17.00
2022-12-20T00:07:19.847Z,17.00
2022-12-20T00:07:51.297Z,17.00
2022-12-20T00:08:22.728Z,17.00
2022-12-20T00:08:54.215Z,16.98
2022-12-20T00:09:25.657Z,16.98
2022-12-20T00:09:57.083Z,16.99
2022-12-20T00:10:28.481Z,16.99
2022-12-20T00:10:59.883Z,16.97
2022-12-20T00:11:31.274Z,16.96
2022-12-20T00:12:02.681Z,16.97
2022-12-20T00:12:34.082Z,16.97
2022-12-20T00:13:05.479Z,16.96
2022-12-20T00:13:36.898Z,16.95
2022-12-20T00:14:08.364Z,16.95
2022-12-20T00:14:39.772Z,16.94
2022-12-20T00:15:11.188Z,16.96
2022-12-20T00:15:42.601Z,16.94
2022-12-20T00:16:13.992Z,16.94
2022-12-20T00:16:45.410Z,16.93
2022-12-20T00:17:16.886Z,16.94
2022-12-20T00:17:48.377Z,16.93
2022-12-20T00:18:19.866Z,16.93
2022-12-20T00:18:51.343Z,16.93
2022-12-20T00:19:22.807Z,16.93
2022-12-20T00:19:54.226Z,16.92
2022-12-20T00:20:25.743Z,16.91
2022-12-20T00:20:57.148Z,16.90
2022-12-20T00:21:28.602Z,16.91
2022-12-20T00:22:00.027Z,16.90
2022-12-20T00:22:31.454Z,16.90
2022-12-20T00:23:02.885Z,16.90
2022-12-20T00:23:34.304Z,16.89
2022-12-20T00:24:05.821Z,16.89
2022-12-20T00:24:37.322Z,16.90
2022-12-20T00:25:08.710Z,16.89
2022-12-20T00:25:40.132Z,16.89
2022-12-20T00:26:11.553Z,16.89
2022-12-20T00:26:43.022Z,16.88
2022-12-20T00:27:14.424Z,16.88
2022-12-20T00:27:45.842Z,16.88
2022-12-20T00:28:17.261Z,16.87
2022-12-20T00:28:48.662Z,16.87
2022-12-20T00:29:20.059Z,16.87
2022-12-20T00:29:51.579Z,16.87
2022-12-20T00:30:22.972Z,16.87
2022-12-20T00:30:54.373Z,16.86
2022-12-20T00:31:25.793Z,16.86
2022-12-20T00:31:57.262Z,16.85
2022-12-20T00:32:28.733Z,16.86
2022-12-20T00:33:00.130Z,16.84
2022-12-20T00:33:31.522Z,16.85
2022-12-20T00:34:02.946Z,16.84
2022-12-20T00:34:34.378Z,16.84
2022-12-20T00:35:05.789Z,16.84
2022-12-20T00:35:37.182Z,16.84
2022-12-20T00:36:08.584Z,16.83
2022-12-20T00:36:39.994Z,16.83
2022-12-20T00:37:11.386Z,16.82
2022-12-20T00:37:42.789Z,16.84
2022-12-20T00:38:14.177Z,16.83
2022-12-20T00:38:45.596Z,16.83
2022-12-20T00:39:17.151Z,16.82
2022-12-20T00:39:48.668Z,16.82
2022-12-20T00:40:20.081Z,16.82
2022-12-20T00:40:51.496Z,16.81
2022-12-20T00:41:22.917Z,16.80
2022-12-20T00:41:54.321Z,16.80
2022-12-20T00:42:25.742Z,16.79
2022-12-20T00:42:57.144Z,16.79
2022-12-20T00:43:28.579Z,16.78
2022-12-20T00:44:00.010Z,16.77
2022-12-20T00:44:31.423Z,16.77
2022-12-20T00:45:02.934Z,16.78
2022-12-20T00:45:34.362Z,16.77
2022-12-20T00:46:05.764Z,16.76
2022-12-20T00:46:37.233Z,16.76
2022-12-20T00:47:08.716Z,16.77
2022-12-20T00:47:40.122Z,16.76
2022-12-20T00:48:11.548Z,16.75
2022-12-20T00:48:42.957Z,16.76
2022-12-20T00:49:14.375Z,16.75
2022-12-20T00:49:45.775Z,16.74
2022-12-20T00:50:17.195Z,16.73
2022-12-20T00:50:48.623Z,16.74
2022-12-20T00:51:20.026Z,16.72
2022-12-20T00:51:51.461Z,16.73
2022-12-20T00:52:22.859Z,16.74
2022-12-20T00:52:54.331Z,16.73
2022-12-20T00:53:26.647Z,16.73
2022-12-20T00:53:58.240Z,16.73
2022-12-20T00:54:29.664Z,16.71
2022-12-20T00:55:01.227Z,16.73
2022-12-20T00:55:32.706Z,16.73
2022-12-20T00:56:04.124Z,16.72
2022-12-20T00:56:35.555Z,16.72
2022-12-20T00:57:06.960Z,16.73
2022-12-20T00:57:38.358Z,16.70
2022-12-20T00:58:09.771Z,16.69
2022-12-20T00:58:41.174Z,16.69
2022-12-20T00:59:12.591Z,16.70
2022-12-20T00:59:44.001Z,16.70
2022-12-20T01:00:15.393Z,16.70
2022-12-20T01:00:52.066Z,16.70
2022-12-20T01:01:27.265Z,16.70
2022-12-20T01:01:58.881Z,16.68
2022-12-20T01:02:30.576Z,16.67
2022-12-20T01:03:02.269Z,16.67
2022-12-20T01:03:33.722Z,16.67
2022-12-20T01:04:05.175Z,16.68
2022-12-20T01:04:36.584Z,16.68
2022-12-20T01:05:08.011Z,16.67
2022-12-20T01:05:39.429Z,16.68
2022-12-20T01:06:10.951Z,16.67
2022-12-20T01:06:42.394Z,16.66
2022-12-20T01:07:13.811Z,16.66
2022-12-20T01:07:45.207Z,16.66
2022-12-20T01:08:16.632Z,16.66
2022-12-20T01:08:48.063Z,16.66
2022-12-20T01:09:19.495Z,16.65
2022-12-20T01:09:50.891Z,16.65
2022-12-20T01:10:22.343Z,16.65
2022-12-20T01:10:53.753Z,16.64
2022-12-20T01:11:25.236Z,16.64
2022-12-20T01:11:56.674Z,16.65
2022-12-20T01:12:28.077Z,16.65
2022-12-20T01:12:59.504Z,16.64
2022-12-20T01:13:30.916Z,16.62
2022-12-20T01:14:02.342Z,16.63
2022-12-20T01:14:33.782Z,16.62
2022-12-20T01:15:05.202Z,16.62
2022-12-20T01:15:36.628Z,16.63
2022-12-20T01:16:08.070Z,16.63
2022-12-20T01:16:39.678Z,16.62
2022-12-20T01:17:11.163Z,16.61
2022-12-20T01:17:42.560Z,16.62
2022-12-20T01:18:13.981Z,16.60
2022-12-20T01:18:45.379Z,16.60
2022-12-20T01:19:16.785Z,16.60
2022-12-20T01:19:48.193Z,16.60
2022-12-20T01:20:19.607Z,16.60
2022-12-20T01:20:51.043Z,16.59
2022-12-20T01:21:22.462Z,16.58
2022-12-20T01:21:53.938Z,16.58
2022-12-20T01:22:25.364Z,16.58
2022-12-20T01:22:56.836Z,16.58
2022-12-20T01:23:28.259Z,16.58
2022-12-20T01:23:59.684Z,16.58
2022-12-20T01:24:31.085Z,16.58
2022-12-20T01:25:02.516Z,16.57
2022-12-20T01:25:33.916Z,16.57
2022-12-20T01:26:05.309Z,16.56
2022-12-20T01:26:36.711Z,16.56
2022-12-20T01:27:08.222Z,16.55
2022-12-20T01:27:39.626Z,16.56
2022-12-20T01:28:11.065Z,16.55
2022-12-20T01:28:42.484Z,16.53
2022-12-20T01:29:13.911Z,16.54
2022-12-20T01:29:45.314Z,16.54
2022-12-20T01:30:16.740Z,16.54
2022-12-20T01:30:48.130Z,16.54
2022-12-20T01:31:19.602Z,16.54
2022-12-20T01:31:51.263Z,16.54
2022-12-20T01:32:22.785Z,16.52
2022-12-20T01:32:54.182Z,16.52
2022-12-20T01:33:25.587Z,16.52
2022-12-20T01:33:57.023Z,16.52
2022-12-20T01:34:28.447Z,16.52
2022-12-20T01:34:59.844Z,16.50
2022-12-20T01:35:31.249Z,16.51
2022-12-20T01:36:02.650Z,16.50
2022-12-20T01:36:34.042Z,16.50
2022-12-20T01:37:05.395Z,16.50
2022-12-20T01:37:36.954Z,16.50
2022-12-20T01:38:08.347Z,16.48
2022-12-20T01:38:39.810Z,16.48
2022-12-20T01:39:11.229Z,16.48
2022-12-20T01:39:42.647Z,16.46
2022-12-20T01:40:14.071Z,16.47
2022-12-20T01:40:45.499Z,16.47
2022-12-20T01:41:16.905Z,16.48
2022-12-20T01:41:48.326Z,16.47
2022-12-20T01:42:19.739Z,16.46
2022-12-20T01:42:51.201Z,16.46
2022-12-20T01:43:22.606Z,16.45
2022-12-20T01:43:54.009Z,16.47
2022-12-20T01:44:25.420Z,16.46
2022-12-20T01:44:56.826Z,16.45
2022-12-20T01:45:28.344Z,16.45
2022-12-20T01:45:59.918Z,16.44
2022-12-20T01:46:31.476Z,16.44
2022-12-20T01:47:02.957Z,16.44
2022-12-20T01:47:34.392Z,16.44
2022-12-20T01:48:05.827Z,16.44
2022-12-20T01:48:37.251Z,16.43
2022-12-20T01:49:08.654Z,16.44
2022-12-20T01:49:40.050Z,16.44
2022-12-20T01:50:11.470Z,16.43
2022-12-20T01:50:42.890Z,16.41
2022-12-20T01:51:14.337Z,16.41
2022-12-20T01:51:45.767Z,16.41
2022-12-20T01:52:17.176Z,16.41
2022-12-20T01:52:48.661Z,16.41
2022-12-20T01:53:20.144Z,16.41
2022-12-20T01:53:51.600Z,16.41
2022-12-20T01:54:23.016Z,16.41
2022-12-20T01:54:54.409Z,16.41
2022-12-20T01:55:25.800Z,16.40
2022-12-20T01:55:57.213Z,16.40
2022-12-20T01:56:28.666Z,16.40
2022-12-20T01:57:00.085Z,16.39
2022-12-20T01:57:31.518Z,16.39
2022-12-20T01:58:02.911Z,16.38
2022-12-20T01:58:34.409Z,16.37
2022-12-20T01:59:05.814Z,16.38
2022-12-20T01:59:37.216Z,16.37
2022-12-20T02:00:08.623Z,16.37
2022-12-20T02:00:40.040Z,16.37
2022-12-20T02:01:11.521Z,16.36
2022-12-20T02:01:43.046Z,16.37
2022-12-20T02:02:14.664Z,16.36
2022-12-20T02:02:46.222Z,16.36
2022-12-20T02:03:17.738Z,16.35
2022-12-20T02:03:49.191Z,16.36
2022-12-20T02:04:20.582Z,16.35
2022-12-20T02:04:51.989Z,16.34
2022-12-20T02:05:23.390Z,16.34
2022-12-20T02:05:54.847Z,16.34
2022-12-20T02:06:26.236Z,16.33
2022-12-20T02:06:57.677Z,16.33
2022-12-20T02:07:29.084Z,16.33
2022-12-20T02:08:00.498Z,16.32
2022-12-20T02:08:31.949Z,16.32
2022-12-20T02:09:03.468Z,16.32
2022-12-20T02:09:34.864Z,16.32
2022-12-20T02:10:06.273Z,16.31
2022-12-20T02:10:37.719Z,16.30
2022-12-20T02:11:09.134Z,16.31
2022-12-20T02:11:40.534Z,16.31
2022-12-20T02:12:12.015Z,16.31
2022-12-20T02:12:43.456Z,16.30
2022-12-20T02:13:14.883Z,16.32
2022-12-20T02:13:46.311Z,16.31
2022-12-20T02:14:17.817Z,16.31
2022-12-20T02:14:49.285Z,16.30
2022-12-20T02:15:20.758Z,16.31
2022-12-20T02:15:52.170Z,16.31
2022-12-20T02:16:23.601Z,16.30
2022-12-20T02:16:55.068Z,16.30
2022-12-20T02:17:26.524Z,16.30
2022-12-20T02:17:57.966Z,16.30
2022-12-20T02:18:29.390Z,16.29
2022-12-20T02:19:00.806Z,16.29
2022-12-20T02:19:32.281Z,16.29
2022-12-20T02:20:03.692Z,16.30
2022-12-20T02:20:35.088Z,16.28
2022-12-20T02:21:06.497Z,16.28
2022-12-20T02:21:37.883Z,16.29
2022-12-20T02:22:09.297Z,16.28
2022-12-20T02:22:40.696Z,16.28
2022-12-20T02:23:12.092Z,16.27
2022-12-20T02:23:43.498Z,16.28
2022-12-20T02:24:14.920Z,16.28
2022-12-20T02:24:46.449Z,16.28
2022-12-20T02:25:17.859Z,16.27
2022-12-20T02:25:49.266Z,16.26
2022-12-20T02:26:20.669Z,16.27
2022-12-20T02:26:52.057Z,16.27
2022-12-20T02:27:23.500Z,16.27
2022-12-20T02:27:56.954Z,16.26
2022-12-20T02:28:28.375Z,16.26
2022-12-20T02:28:59.794Z,16.27
2022-12-20T02:29:31.208Z,16.27
2022-12-20T02:30:03.788Z,16.25
2022-12-20T02:30:35.178Z,16.25
2022-12-20T02:31:06.574Z,16.27
2022-12-20T02:31:38.044Z,16.25
2022-12-20T02:32:09.584Z,16.24
2022-12-20T02:32:41.089Z,16.24
2022-12-20T02:33:12.527Z,16.23
2022-12-20T02:33:43.943Z,16.24
2022-12-20T02:34:15.351Z,16.24
2022-12-20T02:34:46.781Z,16.23
2022-12-20T02:35:18.263Z,16.24
2022-12-20T02:35:49.687Z,16.22
2022-12-20T02:36:21.102Z,16.22
2022-12-20T02:36:52.519Z,16.22
2022-12-20T02:37:23.928Z,16.21
2022-12-20T02:37:57.104Z,16.21
2022-12-20T02:38:28.500Z,16.22
2022-12-20T02:38:59.893Z,16.20
2022-12-20T02:39:31.318Z,16.21
2022-12-20T02:40:02.744Z,16.21
2022-12-20T02:40:34.270Z,16.20
2022-12-20T02:41:05.678Z,16.20
2022-12-20T02:41:37.144Z,16.19
2022-12-20T02:42:08.539Z,16.20
2022-12-20T02:42:39.951Z,16.19
2022-12-20T02:43:11.366Z,16.19
2022-12-20T02:43:42.761Z,16.19
2022-12-20T02:44:14.670Z,16.19
2022-12-20T02:44:46.067Z,16.19
2022-12-20T02:45:17.478Z,16.18
2022-12-20T02:45:49.085Z,16.18
2022-12-20T02:46:20.604Z,16.18
2022-12-20T02:46:52.037Z,16.18
2022-12-20T02:47:23.472Z,16.17
2022-12-20T02:47:54.877Z,16.18
2022-12-20T02:48:26.298Z,16.17
2022-12-20T02:48:57.704Z,16.17
2022-12-20T02:49:29.100Z,16.16
2022-12-20T02:50:00.506Z,16.16
2022-12-20T02:50:31.922Z,16.16
2022-12-20T02:51:03.394Z,16.17
2022-12-20T02:51:34.799Z,16.16
2022-12-20T02:52:06.193Z,16.14
2022-12-20T02:52:37.619Z,16.16
2022-12-20T02:53:09.077Z,16.15
2022-12-20T02:53:42.752Z,16.15
2022-12-20T02:54:14.472Z,16.16
2022-12-20T02:54:45.874Z,16.16
2022-12-20T02:55:17.272Z,16.15
2022-12-20T02:55:48.678Z,16.13
2022-12-20T02:56:20.098Z,16.14
2022-12-20T02:56:51.501Z,16.13
2022-12-20T02:57:22.906Z,16.14
2022-12-20T02:57:59.920Z,16.13
2022-12-20T02:58:31.883Z,16.13
2022-12-20T02:59:03.272Z,16.12
2022-12-20T02:59:34.681Z,16.12
2022-12-20T03:00:06.070Z,16.12
2022-12-20T03:00:37.472Z,16.11
2022-12-20T03:01:08.915Z,16.12
2022-12-20T03:01:40.546Z,16.10
2022-12-20T03:02:12.168Z,16.11
2022-12-20T03:02:43.798Z,16.10
2022-12-20T03:03:15.435Z,16.10
2022-12-20T03:03:46.987Z,16.10
2022-12-20T03:04:18.448Z,16.11
2022-12-20T03:04:49.879Z,16.09
2022-12-20T03:05:21.342Z,16.09
2022-12-20T03:05:52.783Z,16.09
2022-12-20T03:06:24.274Z,16.08
2022-12-20T03:06:55.676Z,16.09
2022-12-20T03:07:27.087Z,16.08
2022-12-20T03:07:58.495Z,16.08
2022-12-20T03:08:29.887Z,16.08
2022-12-20T03:09:01.318Z,16.08
2022-12-20T03:09:32.735Z,16.08
2022-12-20T03:10:04.143Z,16.08
2022-12-20T03:10:35.610Z,16.07
2022-12-20T03:11:07.011Z,16.07
2022-12-20T03:11:38.538Z,16.07
2022-12-20T03:12:09.953Z,16.07
2022-12-20T03:12:41.421Z,16.08
2022-12-20T03:13:12.814Z,16.07
2022-12-20T03:13:44.229Z,16.07
2022-12-20T03:14:15.632Z,16.07
2022-12-20T03:14:47.061Z,16.06
2022-12-20T03:15:18.491Z,16.05
2022-12-20T03:15:49.894Z,16.05
2022-12-20T03:16:21.399Z,16.03
2022-12-20T03:16:52.936Z,16.05
2022-12-20T03:17:24.369Z,16.04
2022-12-20T03:17:55.773Z,16.03
2022-12-20T03:18:27.182Z,16.04
2022-12-20T03:18:58.588Z,16.03
2022-12-20T03:19:29.989Z,16.03
2022-12-20T03:20:01.427Z,16.04
2022-12-20T03:20:32.851Z,16.02
2022-12-20T03:21:04.249Z,16.02
2022-12-20T03:21:35.755Z,16.03
2022-12-20T03:22:07.204Z,16.02
2022-12-20T03:22:38.631Z,16.03
2022-12-20T03:23:10.033Z,16.02
2022-12-20T03:23:41.430Z,16.02
2022-12-20T03:24:12.827Z,16.02
2022-12-20T03:24:44.223Z,16.02
2022-12-20T03:25:15.622Z,16.01
2022-12-20T03:25:47.038Z,16.00
2022-12-20T03:26:18.464Z,16.01
2022-12-20T03:26:50.023Z,16.01
2022-12-20T03:27:21.422Z,16.01
2022-12-20T03:27:52.859Z,16.01
2022-12-20T03:28:24.434Z,16.01
2022-12-20T03:28:58.729Z,16.00
2022-12-20T03:29:30.142Z,16.00
2022-12-20T03:30:01.542Z,16.00
2022-12-20T03:30:32.976Z,16.00
2022-12-20T03:31:04.447Z,15.99
2022-12-20T03:31:35.969Z,15.99
2022-12-20T03:32:07.535Z,15.98
2022-12-20T03:32:38.957Z,15.98
2022-12-20T03:33:10.357Z,15.98
2022-12-20T03:33:41.778Z,15.97
2022-12-20T03:34:13.173Z,15.97
2022-12-20T03:34:44.599Z,15.98
2022-12-20T03:35:16.016Z,15.96
2022-12-20T03:35:47.424Z,15.96
2022-12-20T03:36:18.845Z,15.96
2022-12-20T03:36:50.247Z,15.97
2022-12-20T03:37:21.724Z,15.96
2022-12-20T03:37:53.134Z,15.97
2022-12-20T03:38:24.536Z,15.97
2022-12-20T03:38:55.934Z,15.96
2022-12-20T03:39:27.345Z,15.96
2022-12-20T03:39:58.776Z,15.95
2022-12-20T03:40:30.178Z,15.94
2022-12-20T03:41:01.575Z,15.93
2022-12-20T03:41:33.031Z,15.93
2022-12-20T03:42:04.424Z,15.93
2022-12-20T03:42:35.870Z,15.94
2022-12-20T03:43:07.308Z,15.94
2022-12-20T03:43:38.748Z,15.93
2022-12-20T03:44:10.207Z,15.93
2022-12-20T03:44:41.651Z,15.93
2022-12-20T03:45:13.086Z,15.92
2022-12-20T03:45:44.487Z,15.92
2022-12-20T03:46:15.966Z,15.92
2022-12-20T03:46:47.437Z,15.92
2022-12-20T03:47:18.860Z,15.91
2022-12-20T03:47:50.337Z,15.92
2022-12-20T03:48:21.740Z,15.92
2022-12-20T03:48:53.129Z,15.92
2022-12-20T03:49:24.528Z,15.91
2022-12-20T03:49:55.923Z,15.90
2022-12-20T03:50:27.343Z,15.90
2022-12-20T03:50:58.758Z,15.92
2022-12-20T03:51:30.167Z,15.90
2022-12-20T03:52:01.643Z,15.90
2022-12-20T03:52:33.059Z,15.89
2022-12-20T03:53:04.553Z,15.89
2022-12-20T03:53:35.949Z,15.90
2022-12-20T03:54:07.373Z,15.89
2022-12-20T03:54:38.792Z,15.89
2022-12-20T03:55:10.211Z,15.88
2022-12-20T03:55:45.162Z,15.89
2022-12-20T03:56:17.059Z,15.88
2022-12-20T03:56:48.475Z,15.88
2022-12-20T03:57:19.935Z,15.88
2022-12-20T03:57:51.358Z,15.87
2022-12-20T03:58:22.799Z,15.87
2022-12-20T03:58:54.202Z,15.86
2022-12-20T03:59:25.636Z,15.87
2022-12-20T03:59:57.058Z,15.87
2022-12-20T04:00:28.459Z,15.86
2022-12-20T04:00:59.846Z,15.85
2022-12-20T04:01:31.337Z,15.84
2022-12-20T04:02:03.003Z,15.85
2022-12-20T04:02:34.668Z,15.85
2022-12-20T04:03:06.306Z,15.84
2022-12-20T04:03:38.011Z,15.85
2022-12-20T04:04:09.450Z,15.85
2022-12-20T04:04:40.853Z,15.84
2022-12-20T04:05:12.339Z,15.84
2022-12-20T04:05:43.734Z,15.83
2022-12-20T04:06:15.139Z,15.83
2022-12-20T04:06:46.544Z,15.84
2022-12-20T04:07:17.937Z,15.81
2022-12-20T04:07:49.359Z,15.83
2022-12-20T04:08:20.758Z,15.82
2022-12-20T04:08:52.191Z,15.83
2022-12-20T04:09:23.620Z,15.82
2022-12-20T04:09:55.027Z,15.82
2022-12-20T04:10:26.455Z,15.82
2022-12-20T04:10:57.895Z,15.83
2022-12-20T04:11:29.332Z,15.82
2022-12-20T04:12:00.767Z,15.83
2022-12-20T04:12:32.184Z,15.81
2022-12-20T04:13:03.598Z,15.80
2022-12-20T04:13:35.147Z,15.81
2022-12-20T04:14:06.557Z,15.79
2022-12-20T04:14:37.967Z,15.80
2022-12-20T04:15:09.395Z,15.81
2022-12-20T04:15:40.853Z,15.80
2022-12-20T04:16:12.362Z,15.80
2022-12-20T04:16:43.819Z,15.80
2022-12-20T04:17:15.255Z,15.79
2022-12-20T04:17:46.680Z,15.80
2022-12-20T04:18:18.079Z,15.79
2022-12-20T04:18:49.514Z,15.80
2022-12-20T04:19:20.930Z,15.79
2022-12-20T04:19:52.343Z,15.78
2022-12-20T04:20:23.747Z,15.76
2022-12-20T04:20:55.425Z,15.76
2022-12-20T04:21:26.864Z,15.78
2022-12-20T04:22:04.767Z,15.76
2022-12-20T04:22:37.260Z,15.74
2022-12-20T04:23:08.650Z,15.75
2022-12-20T04:23:40.127Z,15.75
2022-12-20T04:24:11.527Z,15.74
2022-12-20T04:24:42.929Z,15.75
2022-12-20T04:25:14.352Z,15.74
2022-12-20T04:25:45.764Z,15.74
2022-12-20T04:26:17.172Z,15.74
2022-12-20T04:26:48.595Z,15.74
2022-12-20T04:27:19.997Z,15.74
2022-12-20T04:27:51.405Z,15.73
2022-12-20T04:28:22.839Z,15.74
2022-12-20T04:28:54.397Z,15.72
2022-12-20T04:29:25.831Z,15.73
2022-12-20T04:29:57.269Z,15.72
2022-12-20T04:30:28.668Z,15.73
2022-12-20T04:31:00.190Z,15.72
2022-12-20T04:31:31.832Z,15.72
2022-12-20T04:32:03.377Z,15.72
2022-12-20T04:32:34.941Z,15.73
2022-12-20T04:33:06.361Z,15.70
2022-12-20T04:33:37.756Z,15.71
2022-12-20T04:34:09.265Z,15.69
2022-12-20T04:34:40.734Z,15.71
2022-12-20T04:35:12.130Z,15.70
2022-12-20T04:35:43.538Z,15.71
2022-12-20T04:36:14.953Z,15.70
2022-12-20T04:36:46.354Z,15.70
2022-12-20T04:37:17.756Z,15.69
2022-12-20T04:37:49.154Z,15.69
2022-12-20T04:38:20.585Z,15.69
2022-12-20T04:38:52.003Z,15.69
2022-12-20T04:39:23.523Z,15.70
2022-12-20T04:39:54.923Z,15.69
2022-12-20T04:40:26.377Z,15.70
2022-12-20T04:40:57.836Z,15.68
2022-12-20T04:41:29.231Z,15.68
2022-12-20T04:42:00.658Z,15.67
2022-12-20T04:42:32.056Z,15.67
2022-12-20T04:43:03.458Z,15.67
2022-12-20T04:43:34.869Z,15.69
2022-12-20T04:44:06.284Z,15.67
2022-12-20T04:44:37.789Z,15.67
2022-12-20T04:45:09.192Z,15.68
2022-12-20T04:45:40.606Z,15.69
2022-12-20T04:46:12.052Z,15.67
2022-12-20T04:46:43.556Z,15.66
2022-12-20T04:47:14.977Z,15.66
2022-12-20T04:47:46.388Z,15.66
2022-12-20T04:48:54.693Z,15.66
2022-12-20T04:49:09.158Z,15.65
2022-12-20T04:49:40.750Z,15.64
2022-12-20T04:50:12.154Z,15.65
2022-12-20T04:50:43.567Z,15.64
2022-12-20T04:51:14.989Z,15.63
2022-12-20T04:51:46.413Z,15.64
2022-12-20T04:52:17.828Z,15.65
2022-12-20T04:52:49.222Z,15.63
2022-12-20T04:53:20.686Z,15.65
2022-12-20T04:53:52.095Z,15.65
2022-12-20T04:54:23.495Z,15.63
2022-12-20T04:54:54.960Z,15.63
2022-12-20T04:55:26.373Z,15.61
2022-12-20T04:55:57.772Z,15.63
2022-12-20T04:56:29.203Z,15.63
2022-12-20T04:57:00.632Z,15.62
2022-12-20T04:57:32.070Z,15.63
2022-12-20T04:58:07.411Z,15.61
2022-12-20T04:58:39.355Z,15.61
2022-12-20T04:59:10.753Z,15.60
2022-12-20T04:59:42.167Z,15.59
2022-12-20T05:00:13.611Z,15.60
2022-12-20T05:00:45.021Z,15.58
2022-12-20T05:01:16.467Z,15.57
2022-12-20T05:01:48.069Z,15.58
2022-12-20T05:02:19.658Z,15.57
2022-12-20T05:02:51.466Z,15.57
2022-12-20T05:03:23.240Z,15.57
2022-12-20T05:03:54.917Z,15.57
2022-12-20T05:04:29.082Z,15.56
2022-12-20T05:05:04.694Z,15.56
2022-12-20T05:05:36.135Z,15.57
2022-12-20T05:06:07.542Z,15.58
2022-12-20T05:06:38.944Z,15.55
2022-12-20T05:07:10.350Z,15.57
2022-12-20T05:07:41.752Z,15.56
2022-12-20T05:08:13.154Z,15.56
2022-12-20T05:08:44.602Z,15.56
2022-12-20T05:09:16.148Z,15.55
2022-12-20T05:09:47.617Z,15.54
2022-12-20T05:10:19.061Z,15.55
2022-12-20T05:10:50.490Z,15.54
2022-12-20T05:11:21.884Z,15.55
2022-12-20T05:11:53.283Z,15.55
2022-12-20T05:12:24.690Z,15.55
2022-12-20T05:12:56.122Z,15.54
2022-12-20T05:13:27.547Z,15.54
2022-12-20T05:13:58.945Z,15.54
2022-12-20T05:14:30.389Z,15.54
2022-12-20T05:15:01.819Z,15.52
2022-12-20T05:15:33.286Z,15.51
2022-12-20T05:16:04.733Z,15.52
2022-12-20T05:16:36.259Z,15.50
2022-12-20T05:17:08.474Z,15.51
2022-12-20T05:17:39.947Z,15.49
2022-12-20T05:18:11.343Z,15.49
2022-12-20T05:18:48.511Z,15.50
2022-12-20T05:19:20.805Z,15.48
2022-12-20T05:19:52.347Z,15.49
2022-12-20T05:20:23.762Z,15.49
2022-12-20T05:20:55.182Z,15.49
2022-12-20T05:21:26.588Z,15.49
2022-12-20T05:21:57.999Z,15.50
2022-12-20T05:22:29.425Z,15.49
2022-12-20T05:23:00.821Z,15.50
2022-12-20T05:23:32.222Z,15.47
2022-12-20T05:24:03.655Z,15.47
2022-12-20T05:24:35.066Z,15.47
2022-12-20T05:25:06.603Z,15.48
2022-12-20T05:25:38.013Z,15.46
2022-12-20T05:26:09.427Z,15.45
2022-12-20T05:26:40.827Z,15.45
2022-12-20T05:27:12.216Z,15.46
2022-12-20T05:27:43.631Z,15.47
2022-12-20T05:28:15.116Z,15.45
2022-12-20T05:28:46.660Z,15.46
2022-12-20T05:29:18.076Z,15.44
2022-12-20T05:29:49.489Z,15.44
2022-12-20T05:30:20.976Z,15.43
2022-12-20T05:30:52.407Z,15.44
2022-12-20T05:31:23.879Z,15.43
2022-12-20T05:31:55.378Z,15.43
2022-12-20T05:32:26.799Z,15.43
2022-12-20T05:32:58.202Z,15.43
2022-12-20T05:33:33.976Z,15.40
2022-12-20T05:34:05.931Z,15.43
2022-12-20T05:34:37.419Z,15.42
2022-12-20T05:35:08.834Z,15.41
2022-12-20T05:35:40.384Z,15.42
2022-12-20T05:36:11.794Z,15.41
2022-12-20T05:36:43.198Z,15.41
2022-12-20T05:37:14.590Z,15.40
2022-12-20T05:37:45.988Z,15.38
2022-12-20T05:38:17.396Z,15.38
2022-12-20T05:38:48.894Z,15.39
2022-12-20T05:39:20.312Z,15.37
2022-12-20T05:39:51.724Z,15.37
2022-12-20T05:40:23.125Z,15.38
2022-12-20T05:40:54.627Z,15.37
2022-12-20T05:41:26.109Z,15.37
2022-12-20T05:41:57.520Z,15.37
2022-12-20T05:42:28.924Z,15.38
2022-12-20T05:43:00.365Z,15.36
2022-12-20T05:43:31.755Z,15.36
2022-12-20T05:44:03.190Z,15.35
2022-12-20T05:44:34.606Z,15.34
2022-12-20T05:45:06.027Z,15.35
2022-12-20T05:45:37.451Z,15.33
2022-12-20T05:46:09.079Z,15.33
2022-12-20T05:46:40.576Z,15.33
2022-12-20T05:47:12.106Z,15.33
2022-12-20T05:47:43.524Z,15.35
2022-12-20T05:48:14.945Z,15.34
2022-12-20T05:48:46.368Z,15.32
2022-12-20T05:49:17.778Z,15.34
2022-12-20T05:49:49.172Z,15.34
2022-12-20T05:50:20.576Z,15.33
2022-12-20T05:50:51.987Z,15.32
2022-12-20T05:51:23.436Z,15.33
2022-12-20T05:51:54.852Z,15.32
2022-12-20T05:52:26.270Z,15.30
2022-12-20T05:52:57.688Z,15.30
2022-12-20T05:53:29.088Z,15.30
2022-12-20T05:54:00.516Z,15.31
2022-12-20T05:54:31.927Z,15.30
2022-12-20T05:55:03.335Z,15.31
2022-12-20T05:55:34.739Z,15.29
2022-12-20T05:56:06.135Z,15.30
2022-12-20T05:56:37.618Z,15.29
2022-12-20T05:57:09.045Z,15.29
2022-12-20T05:57:40.450Z,15.30
2022-12-20T05:58:11.918Z,15.30
2022-12-20T05:58:43.339Z,15.30
2022-12-20T05:59:14.743Z,15.28
2022-12-20T05:59:46.149Z,15.26
2022-12-20T06:00:17.605Z,15.27
2022-12-20T06:00:49.034Z,15.28
2022-12-20T06:01:20.485Z,15.28
2022-12-20T06:01:52.049Z,15.28
2022-12-20T06:02:23.689Z,15.27
2022-12-20T06:02:55.266Z,15.28
2022-12-20T06:03:26.960Z,15.29
2022-12-20T06:03:58.632Z,15.27
2022-12-20T06:04:30.084Z,15.27
2022-12-20T06:05:01.479Z,15.27
2022-12-20T06:05:32.876Z,15.27
2022-12-20T06:06:08.662Z,15.27
2022-12-20T06:06:43.526Z,15.26
2022-12-20T06:07:14.923Z,15.24
2022-12-20T06:07:46.372Z,15.24
2022-12-20T06:08:17.780Z,15.23
2022-12-20T06:08:49.178Z,15.24
2022-12-20T06:09:20.567Z,15.24
2022-12-20T06:09:51.985Z,15.24
2022-12-20T06:10:23.414Z,15.25
2022-12-20T06:10:54.829Z,15.24
2022-12-20T06:11:30.157Z,15.24
2022-12-20T06:12:02.024Z,15.24
2022-12-20T06:12:33.429Z,15.23
2022-12-20T06:13:04.838Z,15.23
2022-12-20T06:13:36.282Z,15.23
2022-12-20T06:14:07.722Z,15.23
2022-12-20T06:14:39.119Z,15.23
2022-12-20T06:15:10.574Z,15.22
2022-12-20T06:15:42.026Z,15.23
2022-12-20T06:16:13.549Z,15.21
2022-12-20T06:16:45.048Z,15.21
2022-12-20T06:17:16.539Z,15.22
2022-12-20T06:17:47.932Z,15.21
2022-12-20T06:18:19.344Z,15.20
2022-12-20T06:18:50.759Z,15.21
2022-12-20T06:19:22.148Z,15.20
2022-12-20T06:19:53.548Z,15.20
2022-12-20T06:20:24.966Z,15.17
2022-12-20T06:20:56.444Z,15.19
2022-12-20T06:21:27.851Z,15.21
2022-12-20T06:21:59.382Z,15.20
2022-12-20T06:22:30.794Z,15.19
2022-12-20T06:23:02.205Z,15.20
2022-12-20T06:23:33.603Z,15.20
2022-12-20T06:24:05.013Z,15.20
2022-12-20T06:24:36.427Z,15.20
2022-12-20T06:25:07.827Z,15.18
2022-12-20T06:25:39.223Z,15.18
2022-12-20T06:26:10.627Z,15.19
2022-12-20T06:26:42.055Z,15.18
2022-12-20T06:27:13.489Z,15.17
2022-12-20T06:27:44.904Z,15.17
2022-12-20T06:28:16.303Z,15.16
2022-12-20T06:28:47.702Z,15.14
2022-12-20T06:29:19.110Z,15.14
2022-12-20T06:29:50.563Z,15.14
2022-12-20T06:30:21.996Z,15.13
2022-12-20T06:30:53.493Z,15.14
2022-12-20T06:31:24.932Z,15.13
2022-12-20T06:31:56.450Z,15.14
2022-12-20T06:32:28.020Z,15.12
2022-12-20T06:32:59.422Z,15.12
2022-12-20T06:33:30.824Z,15.12
2022-12-20T06:34:02.230Z,15.12
2022-12-20T06:34:33.633Z,15.11
2022-12-20T06:35:05.035Z,15.12
2022-12-20T06:35:36.435Z,15.11
2022-12-20T06:36:07.835Z,15.11
2022-12-20T06:36:39.238Z,15.10
2022-12-20T06:37:10.670Z,15.10
2022-12-20T06:37:42.108Z,15.08
2022-12-20T06:38:13.545Z,15.09
2022-12-20T06:38:44.940Z,15.09
2022-12-20T06:39:16.348Z,15.08
2022-12-20T06:39:47.777Z,15.09
2022-12-20T06:40:19.179Z,15.07
2022-12-20T06:40:50.599Z,15.09
2022-12-20T06:41:22.026Z,15.09
2022-12-20T06:41:53.441Z,15.10
2022-12-20T06:42:24.895Z,15.07
2022-12-20T06:42:56.309Z,15.07
2022-12-20T06:43:27.723Z,15.07
2022-12-20T06:43:59.141Z,15.06
2022-12-20T06:44:30.530Z,15.06
2022-12-20T06:45:01.943Z,15.05
2022-12-20T06:45:39.272Z,15.04
2022-12-20T06:46:12.868Z,15.05
2022-12-20T06:46:44.357Z,15.03